Time,TemperatureF,DewpointF,PressureIn,WindDirection,WindDirectionDegrees,WindSpeedMPH,WindSpeedGustMPH,Humidity,HourlyPrecipIn,Conditions,Clouds,dailyrainin,SolarRadiationWatts/m^2,SoftwareType,DateUTC
2013-02-07 00:11:00,34.0,27.0,-100.00,WSW,249,4.0,6.0,75,0.00,,,0.00,0.000000,,2013-02-07 08:11:00,
2013-02-07 00:21:00,34.0,27.0,-100.00,WSW,249,4.0,6.0,75,0.00,,,0.00,0.000000,,2013-02-07 08:21:00,
2013-02-07 00:31:00,34.0,27.0,-100.00,WSW,249,4.0,6.0,75,0.00,,,0.00,0.000000,,2013-02-07 08:31:00,
2013-02-07 00:41:00,34.0,27.0,-100.00,WSW,249,4.0,6.0,75,0.00,,,0.00,0.000000,,2013-02-07 08:41:00,
2013-02-07 00:50:00,35.0,27.0,-100.00,WSW,252,3.0,5.0,71,0.00,,,-99.99,0.000000,,2013-02-07 08:50:00,
2013-02-07 01:21:00,35.0,27.0,-100.00,WSW,252,3.0,5.0,71,0.00,,,-99.99,0.000000,,2013-02-07 09:21:00,
2013-02-07 01:31:00,35.0,27.0,-100.00,WSW,252,3.0,5.0,71,0.00,,,-99.99,0.000000,,2013-02-07 09:31:00,
2013-02-07 01:41:00,35.0,27.0,-100.00,WSW,252,3.0,5.0,71,0.00,,,-99.99,0.000000,,2013-02-07 09:41:00,
2013-02-07 02:22:00,33.0,26.0,-100.00,West,260,3.0,4.0,76,0.00,,,0.00,0.000000,,2013-02-07 10:22:00,
2013-02-07 02:32:00,33.0,26.0,-100.00,West,260,3.0,4.0,76,0.00,,,0.00,0.000000,,2013-02-07 10:32:00,
2013-02-07 02:50:00,33.0,28.0,-100.00,WSW,253,3.0,5.0,82,0.00,,,-99.99,0.000000,,2013-02-07 10:50:00,
2013-02-07 03:22:00,33.0,28.0,-100.00,WSW,253,3.0,5.0,82,0.00,,,-99.99,0.000000,,2013-02-07 11:22:00,
2013-02-07 03:32:00,33.0,28.0,-100.00,WSW,253,3.0,5.0,82,0.00,,,-99.99,0.000000,,2013-02-07 11:32:00,
2013-02-07 03:43:00,33.0,28.0,-100.00,WSW,253,3.0,5.0,82,0.00,,,-99.99,0.000000,,2013-02-07 11:43:00,
2013-02-07 03:50:00,32.0,28.0,-100.00,WSW,240,1.0,4.0,86,-99.99,,,0.00,0.000000,,2013-02-07 11:50:00,
2013-02-07 04:22:00,32.0,28.0,-100.00,WSW,240,1.0,4.0,86,-99.99,,,0.00,0.000000,,2013-02-07 12:22:00,
2013-02-07 04:32:00,32.0,28.0,-100.00,WSW,240,1.0,4.0,86,-99.99,,,0.00,0.000000,,2013-02-07 12:32:00,
2013-02-07 04:42:00,32.0,28.0,-100.00,WSW,240,1.0,4.0,86,-99.99,,,0.00,0.000000,,2013-02-07 12:42:00,
2013-02-07 04:50:00,31.0,28.0,-100.00,ESE,103,1.0,5.0,87,0.00,,,0.00,0.000000,,2013-02-07 12:50:00,
2013-02-07 05:12:00,31.0,28.0,-100.00,ESE,103,1.0,5.0,87,0.00,,,0.00,0.000000,,2013-02-07 13:12:00,
2013-02-07 05:21:00,31.0,28.0,-100.00,ESE,103,1.0,5.0,87,0.00,,,0.00,0.000000,,2013-02-07 13:21:00,
2013-02-07 05:32:00,31.0,28.0,-100.00,ESE,103,1.0,5.0,87,0.00,,,0.00,0.000000,,2013-02-07 13:32:00,
2013-02-07 05:42:00,31.0,28.0,-100.00,ESE,103,1.0,5.0,87,0.00,,,0.00,0.000000,,2013-02-07 13:42:00,
2013-02-07 05:50:00,31.0,29.0,-100.00,WSW,256,3.0,6.0,91,0.00,,,0.00,0.000000,,2013-02-07 13:50:00,
2013-02-07 06:11:00,31.0,29.0,-100.00,WSW,256,3.0,6.0,91,0.00,,,0.00,0.000000,,2013-02-07 14:11:00,
2013-02-07 06:21:00,31.0,29.0,-100.00,WSW,256,3.0,6.0,91,0.00,,,0.00,0.000000,,2013-02-07 14:21:00,
2013-02-07 06:32:00,31.0,29.0,-100.00,WSW,256,3.0,6.0,91,0.00,,,0.00,0.000000,,2013-02-07 14:32:00,
2013-02-07 06:41:00,31.0,29.0,-100.00,WSW,256,3.0,6.0,91,0.00,,,0.00,0.000000,,2013-02-07 14:41:00,
2013-02-07 06:50:00,31.0,28.0,-100.00,WSW,244,4.0,6.0,90,0.00,,,0.00,3.000000,,2013-02-07 14:50:00,
2013-02-07 07:11:00,31.0,28.0,-100.00,WSW,244,4.0,6.0,90,0.00,,,0.00,3.000000,,2013-02-07 15:11:00,
2013-02-07 07:22:00,31.0,28.0,-100.00,WSW,244,4.0,6.0,90,0.00,,,0.00,3.000000,,2013-02-07 15:22:00,
2013-02-07 07:32:00,31.0,28.0,-100.00,WSW,244,4.0,6.0,90,0.00,,,0.00,3.000000,,2013-02-07 15:32:00,
2013-02-07 07:41:00,31.0,28.0,-100.00,WSW,244,4.0,6.0,90,0.00,,,0.00,3.000000,,2013-02-07 15:41:00,
2013-02-07 07:50:00,42.0,36.0,-100.00,WNW,291,0.0,5.0,79,0.00,,,0.00,135.000000,,2013-02-07 15:50:00,
2013-02-07 08:11:00,42.0,36.0,-100.00,WNW,291,0.0,5.0,79,0.00,,,0.00,135.000000,,2013-02-07 16:11:00,
2013-02-07 08:21:00,42.0,36.0,-100.00,WNW,291,0.0,5.0,79,0.00,,,0.00,135.000000,,2013-02-07 16:21:00,
2013-02-07 08:31:00,42.0,36.0,-100.00,WNW,291,0.0,5.0,79,0.00,,,0.00,135.000000,,2013-02-07 16:31:00,
2013-02-07 08:41:00,42.0,36.0,-100.00,WNW,291,0.0,5.0,79,0.00,,,0.00,135.000000,,2013-02-07 16:41:00,
2013-02-07 08:50:00,52.0,38.0,-100.00,East,84,2.0,4.0,58,0.00,,,0.00,326.000000,,2013-02-07 16:50:00,
2013-02-07 09:21:00,52.0,38.0,-100.00,East,84,2.0,4.0,58,0.00,,,0.00,326.000000,,2013-02-07 17:21:00,
2013-02-07 09:31:00,52.0,38.0,-100.00,East,84,2.0,4.0,58,0.00,,,0.00,326.000000,,2013-02-07 17:31:00,
2013-02-07 09:42:00,52.0,38.0,-100.00,East,84,2.0,4.0,58,0.00,,,0.00,326.000000,,2013-02-07 17:42:00,
2013-02-07 09:50:00,62.0,30.0,-100.00,South,173,3.0,9.0,30,0.00,,,0.00,515.000000,,2013-02-07 17:50:00,
2013-02-07 10:23:00,62.0,30.0,-100.00,South,173,3.0,9.0,30,0.00,,,0.00,515.000000,,2013-02-07 18:23:00,
2013-02-07 10:31:00,62.0,30.0,-100.00,South,173,3.0,9.0,30,0.00,,,0.00,515.000000,,2013-02-07 18:31:00,
2013-02-07 10:41:00,62.0,30.0,-100.00,South,173,3.0,9.0,30,0.00,,,0.00,515.000000,,2013-02-07 18:41:00,
2013-02-07 10:50:00,63.0,22.0,-100.00,West,271,9.0,15.0,21,0.00,,,0.00,659.000000,,2013-02-07 18:50:00,
2013-02-07 11:11:00,63.0,22.0,-100.00,West,271,9.0,15.0,21,0.00,,,0.00,659.000000,,2013-02-07 19:11:00,
2013-02-07 11:22:00,63.0,22.0,-100.00,West,271,9.0,15.0,21,0.00,,,0.00,659.000000,,2013-02-07 19:22:00,
2013-02-07 11:31:00,63.0,22.0,-100.00,West,271,9.0,15.0,21,0.00,,,0.00,659.000000,,2013-02-07 19:31:00,
2013-02-07 11:41:00,63.0,22.0,-100.00,West,271,9.0,15.0,21,0.00,,,0.00,659.000000,,2013-02-07 19:41:00,
2013-02-07 11:50:00,64.0,23.0,-100.00,West,260,10.0,15.0,21,0.00,,,0.00,740.000000,,2013-02-07 19:50:00,
2013-02-07 12:21:00,64.0,23.0,-100.00,West,260,10.0,15.0,21,0.00,,,0.00,740.000000,,2013-02-07 20:21:00,
2013-02-07 12:31:00,64.0,23.0,-100.00,West,260,10.0,15.0,21,0.00,,,0.00,740.000000,,2013-02-07 20:31:00,
2013-02-07 12:41:00,64.0,23.0,-100.00,West,260,10.0,15.0,21,0.00,,,0.00,740.000000,,2013-02-07 20:41:00,
2013-02-07 12:50:00,64.0,28.0,-100.00,WSW,252,10.0,18.0,26,0.00,,,0.00,745.000000,,2013-02-07 20:50:00,
2013-02-07 13:11:00,64.0,28.0,-100.00,WSW,252,10.0,18.0,26,0.00,,,0.00,745.000000,,2013-02-07 21:11:00,
2013-02-07 13:21:00,64.0,28.0,-100.00,WSW,252,10.0,18.0,26,0.00,,,0.00,745.000000,,2013-02-07 21:21:00,
2013-02-07 13:31:00,64.0,28.0,-100.00,WSW,252,10.0,18.0,26,0.00,,,0.00,745.000000,,2013-02-07 21:31:00,
2013-02-07 13:41:00,64.0,28.0,-100.00,WSW,252,10.0,18.0,26,0.00,,,0.00,745.000000,,2013-02-07 21:41:00,
2013-02-07 13:50:00,62.0,22.0,-100.00,WSW,245,11.0,17.0,21,0.00,,,0.00,683.000000,,2013-02-07 21:50:00,
2013-02-07 14:11:00,62.0,22.0,-100.00,WSW,245,11.0,17.0,21,0.00,,,0.00,683.000000,,2013-02-07 22:11:00,
2013-02-07 14:21:00,62.0,22.0,-100.00,WSW,245,11.0,17.0,21,0.00,,,0.00,683.000000,,2013-02-07 22:21:00,
2013-02-07 14:31:00,62.0,22.0,-100.00,WSW,245,11.0,17.0,21,0.00,,,0.00,683.000000,,2013-02-07 22:31:00,
2013-02-07 14:42:00,62.0,22.0,-100.00,WSW,245,11.0,17.0,21,0.00,,,0.00,683.000000,,2013-02-07 22:42:00,
2013-02-07 14:50:00,62.0,23.0,-100.00,WSW,254,12.0,19.0,22,0.00,,,0.00,568.000000,,2013-02-07 22:50:00,
2013-02-07 15:11:00,62.0,23.0,-100.00,WSW,254,12.0,19.0,22,0.00,,,0.00,568.000000,,2013-02-07 23:11:00,
2013-02-07 15:21:00,62.0,23.0,-100.00,WSW,254,12.0,19.0,22,0.00,,,0.00,568.000000,,2013-02-07 23:21:00,
2013-02-07 15:31:00,62.0,23.0,-100.00,WSW,254,12.0,19.0,22,0.00,,,0.00,568.000000,,2013-02-07 23:31:00,
2013-02-07 15:41:00,62.0,23.0,-100.00,WSW,254,12.0,19.0,22,0.00,,,0.00,568.000000,,2013-02-07 23:41:00,
2013-02-07 15:50:00,59.0,27.0,-100.00,WSW,251,12.0,22.0,29,0.00,,,0.00,392.000000,,2013-02-07 23:50:00,
2013-02-07 16:21:00,59.0,27.0,-100.00,WSW,251,12.0,22.0,29,0.00,,,0.00,392.000000,,2013-02-08 00:21:00,
2013-02-07 16:31:00,59.0,27.0,-100.00,WSW,251,12.0,22.0,29,0.00,,,0.00,392.000000,,2013-02-08 00:31:00,
2013-02-07 16:41:00,59.0,27.0,-100.00,WSW,251,12.0,22.0,29,0.00,,,0.00,392.000000,,2013-02-08 00:41:00,
2013-02-07 16:50:00,56.0,36.0,-100.00,WSW,240,8.0,17.0,47,0.00,,,0.00,170.000000,,2013-02-08 00:50:00,
2013-02-07 17:41:00,56.0,36.0,-100.00,WSW,240,8.0,17.0,47,0.00,,,0.00,170.000000,,2013-02-08 01:41:00,
2013-02-07 17:50:00,49.0,42.0,-100.00,WSW,254,6.0,16.0,77,0.00,,,0.00,17.000000,,2013-02-08 01:50:00,
2013-02-07 18:21:00,49.0,42.0,-100.00,WSW,254,6.0,16.0,77,0.00,,,0.00,17.000000,,2013-02-08 02:21:00,
2013-02-07 18:31:00,49.0,42.0,-100.00,WSW,254,6.0,16.0,77,0.00,,,0.00,17.000000,,2013-02-08 02:31:00,
2013-02-07 18:42:00,49.0,42.0,-100.00,WSW,254,6.0,16.0,77,0.00,,,0.00,17.000000,,2013-02-08 02:42:00,
2013-02-07 18:50:00,46.0,43.0,-100.00,WSW,256,7.0,14.0,90,0.00,,,0.00,0.000000,,2013-02-08 02:50:00,
2013-02-07 19:12:00,46.0,43.0,-100.00,WSW,256,7.0,14.0,90,0.00,,,0.00,0.000000,,2013-02-08 03:12:00,
2013-02-07 19:22:00,46.0,43.0,-100.00,WSW,256,7.0,14.0,90,0.00,,,0.00,0.000000,,2013-02-08 03:22:00,
2013-02-07 19:31:00,46.0,43.0,-100.00,WSW,256,7.0,14.0,90,0.00,,,0.00,0.000000,,2013-02-08 03:31:00,
2013-02-07 19:41:00,46.0,43.0,-100.00,WSW,256,7.0,14.0,90,0.00,,,0.00,0.000000,,2013-02-08 03:41:00,
2013-02-07 19:50:00,44.0,40.0,-100.00,SW,235,8.0,14.0,86,0.00,,,0.00,0.000000,,2013-02-08 03:50:00,
2013-02-07 20:21:00,44.0,40.0,-100.00,SW,235,8.0,14.0,86,0.00,,,0.00,0.000000,,2013-02-08 04:21:00,
2013-02-07 20:31:00,44.0,40.0,-100.00,SW,235,8.0,14.0,86,0.00,,,0.00,0.000000,,2013-02-08 04:31:00,
2013-02-07 20:41:00,44.0,40.0,-100.00,SW,235,8.0,14.0,86,0.00,,,0.00,0.000000,,2013-02-08 04:41:00,
2013-02-07 20:50:00,44.0,40.0,-100.00,SW,231,11.0,20.0,86,0.00,,,0.00,0.000000,,2013-02-08 04:50:00,
2013-02-07 21:11:00,44.0,40.0,-100.00,SW,231,11.0,20.0,86,0.00,,,0.00,0.000000,,2013-02-08 05:11:00,
2013-02-07 21:22:00,44.0,40.0,-100.00,SW,231,11.0,20.0,86,0.00,,,0.00,0.000000,,2013-02-08 05:22:00,
2013-02-07 21:31:00,44.0,40.0,-100.00,SW,231,11.0,20.0,86,0.00,,,0.00,0.000000,,2013-02-08 05:31:00,
2013-02-07 21:41:00,44.0,40.0,-100.00,SW,231,11.0,20.0,86,0.00,,,0.00,0.000000,,2013-02-08 05:41:00,
2013-02-07 21:50:00,43.0,38.0,-100.00,WSW,245,18.0,30.0,84,0.00,,,0.00,0.000000,,2013-02-08 05:50:00,
2013-02-07 22:21:00,43.0,38.0,-100.00,WSW,245,18.0,30.0,84,0.00,,,0.00,0.000000,,2013-02-08 06:21:00,
2013-02-07 22:31:00,43.0,38.0,-100.00,WSW,245,18.0,30.0,84,0.00,,,0.00,0.000000,,2013-02-08 06:31:00,
2013-02-07 22:41:00,43.0,38.0,-100.00,WSW,245,18.0,30.0,84,0.00,,,0.00,0.000000,,2013-02-08 06:41:00,
2013-02-07 22:50:00,41.0,37.0,-100.00,WSW,244,17.0,30.0,84,0.00,,,0.00,0.000000,,2013-02-08 06:50:00,
2013-02-07 23:11:00,41.0,37.0,-100.00,WSW,244,17.0,30.0,84,0.00,,,0.00,0.000000,,2013-02-08 07:11:00,
2013-02-07 23:21:00,41.0,37.0,-100.00,WSW,244,17.0,30.0,84,0.00,,,0.00,0.000000,,2013-02-08 07:21:00,
2013-02-07 23:31:00,41.0,37.0,-100.00,WSW,244,17.0,30.0,84,0.00,,,0.00,0.000000,,2013-02-08 07:31:00,
2013-02-07 23:42:00,41.0,37.0,-100.00,WSW,244,17.0,30.0,84,0.00,,,0.00,0.000000,,2013-02-08 07:42:00,
2013-02-07 23:50:00,40.0,35.0,-100.00,WSW,250,19.0,31.0,83,0.00,,,0.00,0.000000,,2013-02-08 07:50:00,